Time;durP1;ratioP1;P1;durP2;ratioP2;P2;SDS_P1;SDS_P2;PMS_P1;PMS_P2;Temp;Humidity;BMP_temperature;BMP_pressure;BME280_temperature;BME280_humidity;BME280_pressure;Samples;Min_cycle;Max_cycle;Signal;HPM_P1;HPM_P2
2022/10/24 00:00:29;;;;;;;6.90;3.15;;;21.00;87.30;;;;;;10538992;28;20080;-40
2022/10/24 00:05:32;;;;;;;8.57;3.30;;;21.00;87.30;;;;;;10534738;28;20131;-39
2022/10/24 00:10:35;;;;;;;8.02;3.35;;;20.90;87.30;;;;;;10537577;28;20048;-39
2022/10/24 00:15:37;;;;;;;8.40;2.47;;;20.80;88.70;;;;;;10535322;28;20068;-36
2022/10/24 00:20:41;;;;;;;5.82;2.72;;;20.80;88.60;;;;;;10536122;28;20787;-38
2022/10/24 00:25:43;;;;;;;6.18;2.67;;;20.70;89.40;;;;;;10544015;28;20071;-40
2022/10/24 00:30:45;;;;;;;6.90;2.60;;;20.70;89.20;;;;;;10549943;28;20477;-39
2022/10/24 00:35:48;;;;;;;3.17;2.38;;;20.70;89.40;;;;;;10531073;28;20044;-40
2022/10/24 00:40:50;;;;;;;5.25;2.50;;;20.60;89.50;;;;;;10532405;28;20062;-39
2022/10/24 00:45:54;;;;;;;3.28;2.13;;;20.70;89.00;;;;;;10533926;28;20039;-38
2022/10/24 00:51:01;;;;;;;4.68;2.22;;;20.80;90.00;;;;;;10537671;28;20040;-40
2022/10/24 00:56:06;;;;;;;5.75;1.55;;;20.50;89.50;;;;;;10545974;28;20071;-40
2022/10/24 01:01:08;;;;;;;9.20;1.80;;;20.20;90.40;;;;;;10534930;28;20055;-40
2022/10/24 01:06:23;;;;;;;4.72;1.92;;;20.30;90.50;;;;;;10535307;28;20148;-39
2022/10/24 01:11:39;;;;;;;5.32;2.30;;;20.30;89.40;;;;;;10527779;28;20105;-39
2022/10/24 01:16:47;;;;;;;3.40;1.98;;;20.30;89.00;;;;;;10527787;28;20142;-41
2022/10/24 01:21:53;;;;;;;4.15;1.50;;;20.20;90.40;;;;;;10537690;28;20139;-39
2022/10/24 01:27:28;;;;;;;8.90;1.52;;;19.90;91.40;;;;;;10526469;28;20139;-39
2022/10/24 01:32:44;;;;;;;9.15;1.80;;;19.70;91.80;;;;;;10531267;28;20051;-39
2022/10/24 01:37:51;;;;;;;2.88;1.50;;;19.70;91.70;;;;;;10534000;28;20127;-39
2022/10/24 01:42:58;;;;;;;5.90;1.60;;;19.90;90.30;;;;;;10542159;28;20036;-38
2022/10/24 01:48:07;;;;;;;5.03;1.58;;;19.70;90.40;;;;;;10530892;28;20105;-39
2022/10/24 01:53:10;;;;;;;4.47;1.55;;;19.50;91.10;;;;;;10530113;28;20051;-39
2022/10/24 01:58:12;;;;;;;6.85;1.25;;;19.30;91.10;;;;;;10534473;28;20218;-39
2022/10/24 02:03:22;;;;;;;3.45;1.10;;;19.20;91.90;;;;;;10533688;28;20587;-40
2022/10/24 02:08:30;;;;;;;5.40;1.40;;;19.10;92.30;;;;;;10533863;28;20052;-39
2022/10/24 02:13:36;;;;;;;2.83;1.30;;;19.40;90.30;;;;;;10536696;28;20122;-40
2022/10/24 02:18:40;;;;;;;2.45;1.48;;;19.40;90.80;;;;;;10534779;28;20075;-40
2022/10/24 02:23:46;;;;;;;4.50;1.10;;;19.00;91.50;;;;;;10536559;28;20143;-39
2022/10/24 02:28:53;;;;;;;5.25;1.10;;;18.30;92.20;;;;;;10531085;28;20477;-39
2022/10/24 02:33:57;;;;;;;4.47;1.15;;;18.80;93.10;;;;;;10532159;28;20048;-40
2022/10/24 02:38:59;;;;;;;4.82;1.00;;;18.70;93.00;;;;;;10539998;28;20143;-42
2022/10/24 02:44:02;;;;;;;;;;;18.50;92.40;;;;;;10531329;28;20140;-41
2022/10/24 02:49:06;;;;;;;3.80;1.38;;;19.10;92.00;;;;;;10531272;28;19920;-40
2022/10/24 02:54:09;;;;;;;5.05;1.27;;;19.20;92.50;;;;;;10529686;28;20467;-40
2022/10/24 02:59:11;;;;;;;4.50;0.80;;;18.80;91.00;;;;;;10530530;28;20051;-38
2022/10/24 03:04:14;;;;;;;6.63;1.20;;;18.40;91.80;;;;;;10541889;28;20052;-40
2022/10/24 03:09:16;;;;;;;3.22;1.27;;;18.40;92.10;;;;;;10538531;28;20139;-39
2022/10/24 03:14:18;;;;;;;10.60;1.70;;;18.40;93.60;;;;;;10538662;28;20116;-40
2022/10/24 03:19:22;;;;;;;10.45;1.27;;;18.00;93.40;;;;;;10548045;28;20453;-39
2022/10/24 03:24:23;;;;;;;8.85;1.10;;;18.20;91.50;;;;;;10540214;28;20057;-39
2022/10/24 03:29:25;;;;;;;8.63;1.30;;;18.10;93.10;;;;;;10534641;28;20134;-39
2022/10/24 03:34:29;;;;;;;5.55;1.00;;;18.20;92.30;;;;;;10532526;28;20075;-39
2022/10/24 03:39:30;;;;;;;5.00;0.80;;;18.10;91.50;;;;;;10536932;28;20388;-39
2022/10/24 03:44:32;;;;;;;10.70;1.27;;;18.00;92.30;;;;;;10537339;28;20044;-39
2022/10/24 03:49:36;;;;;;;6.93;1.08;;;17.70;94.10;;;;;;10542275;28;20060;-37
2022/10/24 03:54:38;;;;;;;6.75;0.90;;;17.70;92.40;;;;;;10538151;28;20056;-40
2022/10/24 03:59:40;;;;;;;10.52;1.33;;;18.20;92.20;;;;;;10545447;28;20105;-36
2022/10/24 04:04:43;;;;;;;5.60;0.80;;;19.20;90.30;;;;;;10536374;28;20530;-40
2022/10/24 04:09:45;;;;;;;2.33;0.80;;;19.20;90.00;;;;;;10532306;28;20494;-40
2022/10/24 04:14:47;;;;;;;3.97;0.80;;;18.70;92.30;;;;;;10533697;28;20044;-38
2022/10/24 04:19:50;;;;;;;7.30;2.13;;;18.70;90.70;;;;;;10538222;28;20080;-40
2022/10/24 04:24:52;;;;;;;4.22;0.88;;;18.70;90.40;;;;;;10538492;28;21050;-40
2022/10/24 04:29:53;;;;;;;3.20;0.65;;;19.10;90.60;;;;;;10537608;28;20115;-40
2022/10/24 04:34:57;;;;;;;3.77;1.00;;;18.70;91.60;;;;;;10537365;28;20074;-40
2022/10/24 04:39:59;;;;;;;5.13;1.00;;;19.30;90.70;;;;;;10534782;28;20935;-40
2022/10/24 04:45:00;;;;;;;4.40;1.00;;;19.00;90.90;;;;;;10540257;28;20089;-40
2022/10/24 04:50:04;;;;;;;8.20;1.13;;;18.50;92.90;;;;;;10543237;28;20052;-40
2022/10/24 04:55:07;;;;;;;6.82;1.45;;;18.70;91.10;;;;;;10532281;28;20589;-40
2022/10/24 05:00:09;;;;;;;;;;;18.30;92.80;;;;;;10541132;28;20098;-40
2022/10/24 05:05:12;;;;;;;3.40;0.87;;;18.40;91.40;;;;;;10532551;28;19934;-40
2022/10/24 05:10:16;;;;;;;6.43;1.13;;;18.80;92.40;;;;;;10533750;28;20101;-39
2022/10/24 05:15:18;;;;;;;5.13;0.75;;;18.50;92.30;;;;;;10536655;28;20048;-37
2022/10/24 05:20:22;;;;;;;2.47;0.50;;;17.80;93.00;;;;;;10534171;28;20087;-39
2022/10/24 05:25:24;;;;;;;6.68;1.02;;;18.40;94.10;;;;;;10528943;28;20117;-39
2022/10/24 05:30:26;;;;;;;8.93;1.20;;;17.50;93.40;;;;;;10542972;28;20048;-40
2022/10/24 05:35:29;;;;;;;6.50;1.10;;;17.90;92.30;;;;;;10536544;28;20081;-39
2022/10/24 05:40:31;;;;;;;6.13;0.98;;;18.10;94.00;;;;;;10532783;28;20551;-39
2022/10/24 05:45:33;;;;;;;5.83;1.07;;;17.90;93.30;;;;;;10536261;28;20114;-40
2022/10/24 05:50:36;;;;;;;12.57;1.90;;;17.70;92.30;;;;;;10545069;28;20477;-39
2022/10/24 05:55:38;;;;;;;12.63;1.42;;;18.10;93.60;;;;;;10532526;28;20087;-43
2022/10/24 06:00:40;;;;;;;6.30;1.07;;;18.20;92.00;;;;;;10521298;28;20529;-43
2022/10/24 06:05:43;;;;;;;9.97;1.13;;;17.90;93.50;;;;;;10527956;28;20064;-42
2022/10/24 06:10:46;;;;;;;6.85;1.10;;;17.80;93.70;;;;;;10531030;28;21106;-40
2022/10/24 06:15:48;;;;;;;4.63;1.02;;;17.10;95.70;;;;;;10537933;28;20044;-39
2022/10/24 06:20:51;;;;;;;6.03;1.90;;;17.00;96.90;;;;;;10536490;28;20047;-38
2022/10/24 06:25:53;;;;;;;7.72;1.77;;;17.20;96.90;;;;;;10532301;28;20113;-37
2022/10/24 06:30:55;;;;;;;11.32;1.65;;;16.80;97.50;;;;;;10531525;28;20128;-39
2022/10/24 06:36:01;;;;;;;8.00;1.10;;;16.30;98.90;;;;;;10534760;28;20464;-38
2022/10/24 06:41:06;;;;;;;4.53;0.85;;;16.60;98.50;;;;;;10534272;28;20048;-40
2022/10/24 06:46:09;;;;;;;10.25;1.33;;;16.90;97.20;;;;;;10528494;28;20078;-39
2022/10/24 06:51:16;;;;;;;18.05;1.92;;;16.10;99.30;;;;;;10531014;28;20086;-39
2022/10/24 06:56:18;;;;;;;5.53;0.90;;;15.80;99.90;;;;;;10534920;28;20075;-42
2022/10/24 07:01:22;;;;;;;10.00;1.10;;;16.90;98.10;;;;;;10532252;28;20093;-43
2022/10/24 07:06:27;;;;;;;8.45;1.30;;;16.40;98.80;;;;;;10531879;28;20084;-41
2022/10/24 07:11:29;;;;;;;4.97;1.25;;;16.30;98.90;;;;;;10529684;28;20464;-41
2022/10/24 07:16:31;;;;;;;7.50;1.00;;;16.10;99.50;;;;;;10537973;28;20430;-40
2022/10/24 07:21:35;;;;;;;12.97;1.10;;;16.10;99.60;;;;;;10527812;28;20139;-41
2022/10/24 07:26:36;;;;;;;9.57;1.05;;;16.30;98.80;;;;;;10548826;28;20928;-36
2022/10/24 07:31:38;;;;;;;5.77;0.93;;;16.80;97.20;;;;;;10533742;28;20052;-41
2022/10/24 07:36:41;;;;;;;3.03;1.17;;;16.90;97.20;;;;;;10533534;28;20575;-42
2022/10/24 07:41:43;;;;;;;11.88;1.48;;;16.20;99.10;;;;;;10520262;28;20104;-41
2022/10/24 07:46:45;;;;;;;5.00;1.57;;;16.20;99.00;;;;;;10543397;28;20445;-40
2022/10/24 07:51:48;;;;;;;7.70;1.20;;;16.20;99.60;;;;;;10544517;28;20068;-40
2022/10/24 07:56:50;;;;;;;11.20;1.10;;;16.40;98.70;;;;;;10538922;28;20043;-42
2022/10/24 08:01:52;;;;;;;5.07;1.30;;;16.10;99.60;;;;;;10536671;28;20044;-42
2022/10/24 08:06:56;;;;;;;7.40;1.10;;;16.70;97.40;;;;;;10537314;28;20729;-43
2022/10/24 08:11:58;;;;;;;13.68;1.20;;;16.50;98.10;;;;;;10536881;28;20490;-43
2022/10/24 08:17:00;;;;;;;4.93;1.03;;;16.40;98.70;;;;;;10535581;28;20048;-41
2022/10/24 08:22:03;;;;;;;14.50;1.60;;;16.10;99.10;;;;;;10540228;28;20133;-45
2022/10/24 08:27:05;;;;;;;4.60;0.90;;;16.10;99.40;;;;;;10538961;28;20465;-41
2022/10/24 08:32:07;;;;;;;10.10;1.20;;;15.80;99.90;;;;;;10535125;28;20058;-44
2022/10/24 08:37:10;;;;;;;14.83;1.33;;;16.40;99.00;;;;;;10532449;28;20076;-40
2022/10/24 08:42:16;;;;;;;8.43;2.35;;;15.90;99.90;;;;;;10541751;28;20547;-42
2022/10/24 08:47:26;;;;;;;15.13;1.50;;;16.40;98.80;;;;;;10542416;28;20055;-41
2022/10/24 08:52:32;;;;;;;7.75;0.90;;;16.00;99.90;;;;;;10543131;28;20461;-40
2022/10/24 08:57:35;;;;;;;6.32;0.90;;;15.80;99.90;;;;;;10530331;28;20424;-37
2022/10/24 09:02:38;;;;;;;9.05;1.35;;;16.70;98.40;;;;;;10535007;28;20113;-42
2022/10/24 09:07:46;;;;;;;4.80;0.98;;;16.10;98.70;;;;;;10529076;28;20048;-45
2022/10/24 09:12:48;;;;;;;8.48;1.48;;;16.60;98.60;;;;;;10530237;28;20082;-40
2022/10/24 09:17:51;;;;;;;6.90;1.20;;;16.00;99.90;;;;;;10535514;28;20051;-40
2022/10/24 09:22:56;;;;;;;7.28;2.17;;;16.70;98.90;;;;;;10543398;28;20078;-42
2022/10/24 09:28:04;;;;;;;5.38;1.00;;;16.30;99.20;;;;;;10535571;28;20401;-46
2022/10/24 09:33:15;;;;;;;11.80;1.65;;;16.30;99.70;;;;;;10537882;28;20091;-45
2022/10/24 09:38:32;;;;;;;7.18;1.23;;;16.20;99.80;;;;;;10533325;28;20096;-44
2022/10/24 09:43:40;;;;;;;12.65;1.50;;;16.80;98.50;;;;;;10532182;28;20048;-45
2022/10/24 09:48:54;;;;;;;8.88;1.20;;;16.30;99.80;;;;;;10537225;28;20056;-43
2022/10/24 09:54:22;;;;;;;14.65;1.75;;;16.40;99.90;;;;;;10527476;28;20045;-41
2022/10/24 09:59:41;;;;;;;14.48;1.55;;;16.50;99.90;;;;;;10524175;28;20067;-41
2022/10/24 10:04:43;;;;;;;11.13;1.30;;;17.00;98.00;;;;;;10537770;28;20127;-45
2022/10/24 10:09:52;;;;;;;6.25;1.33;;;16.90;98.20;;;;;;10537044;28;20295;-45
2022/10/24 10:14:55;;;;;;;6.18;2.05;;;16.90;98.10;;;;;;10525227;28;20488;-44
2022/10/24 10:19:58;;;;;;;7.20;1.67;;;17.30;97.10;;;;;;10535176;28;20063;-44
2022/10/24 10:25:01;;;;;;;5.80;1.00;;;16.70;98.70;;;;;;10537452;28;20059;-42
2022/10/24 10:30:24;;;;;;;8.73;1.58;;;17.20;97.70;;;;;;10531898;28;20086;-40
2022/10/24 10:35:31;;;;;;;8.80;1.15;;;16.70;99.30;;;;;;10525961;28;20048;-42
2022/10/24 10:40:39;;;;;;;15.07;1.38;;;17.00;99.10;;;;;;10516730;28;20105;-39
2022/10/24 10:45:45;;;;;;;8.80;1.55;;;17.70;98.20;;;;;;10527888;28;20301;-44
2022/10/24 10:50:51;;;;;;;7.28;1.05;;;17.10;98.00;;;;;;10524840;28;20055;-46
2022/10/24 10:56:04;;;;;;;5.43;0.82;;;17.20;97.80;;;;;;10531520;28;20048;-43
2022/10/24 11:01:16;;;;;;;6.78;1.25;;;16.40;99.90;;;;;;10524317;28;20037;-46
2022/10/24 11:06:30;;;;;;;11.05;1.42;;;17.20;97.80;;;;;;10531738;28;20097;-37
2022/10/24 11:11:38;;;;;;;7.93;1.30;;;16.90;99.30;;;;;;10528428;28;20044;-42
2022/10/24 11:16:41;;;;;;;7.78;1.23;;;16.80;99.30;;;;;;10533333;28;20105;-40
2022/10/24 11:21:44;;;;;;;8.43;1.27;;;17.00;98.90;;;;;;10536407;28;20444;-43
2022/10/24 11:26:53;;;;;;;6.00;1.33;;;16.60;99.90;;;;;;10535638;28;20050;-44
2022/10/24 11:31:58;;;;;;;2.03;0.50;;;16.90;99.00;;;;;;10537423;28;20048;-45
2022/10/24 11:37:05;;;;;;;4.07;1.58;;;17.30;97.90;;;;;;10529889;28;20089;-42
2022/10/24 11:42:18;;;;;;;7.40;1.52;;;16.60;99.90;;;;;;10538907;28;20166;-42
2022/10/24 11:47:43;;;;;;;4.10;1.10;;;17.00;98.80;;;;;;10537954;28;20127;-44
2022/10/24 11:52:49;;;;;;;7.00;1.33;;;16.90;99.30;;;;;;10536229;28;20076;-42
2022/10/24 11:57:57;;;;;;;3.78;1.00;;;17.10;99.30;;;;;;10528046;28;20055;-42
2022/10/24 12:03:28;;;;;;;11.32;1.13;;;16.90;99.90;;;;;;10537122;28;20135;-41
2022/10/24 12:09:04;;;;;;;8.88;0.85;;;17.00;99.60;;;;;;10532700;28;20048;-45
2022/10/24 12:14:29;;;;;;;6.72;0.75;;;17.10;99.30;;;;;;10534274;28;20048;-43
2022/10/24 12:19:32;;;;;;;4.40;0.65;;;16.90;99.60;;;;;;10528166;28;20052;-44
2022/10/24 12:24:37;;;;;;;4.68;0.50;;;16.80;99.90;;;;;;10539783;28;20048;-44
2022/10/24 12:29:42;;;;;;;2.30;0.60;;;16.90;99.10;;;;;;10532707;28;20484;-39
2022/10/24 12:34:55;;;;;;;6.57;0.93;;;16.60;99.90;;;;;;10529472;28;20077;-42
2022/10/24 12:39:58;;;;;;;3.63;0.90;;;15.50;99.90;;;;;;10532672;28;20105;-41
2022/10/24 12:45:28;;;;;;;7.25;0.93;;;16.90;99.90;;;;;;10548637;28;20079;-39
2022/10/24 12:50:56;;;;;;;6.57;1.20;;;16.60;99.90;;;;;;10535128;28;20485;-39
2022/10/24 12:56:23;;;;;;;6.82;1.13;;;16.30;99.90;;;;;;10526394;28;20052;-40
2022/10/24 13:01:31;;;;;;;6.90;1.63;;;16.10;99.90;;;;;;10534564;28;20084;-39
2022/10/24 13:06:43;;;;;;;5.18;1.55;;;15.80;99.90;;;;;;10531866;28;20397;-39
2022/10/24 13:12:00;;;;;;;8.27;2.40;;;15.60;99.90;;;;;;10532562;28;20127;-40
2022/10/24 13:17:11;;;;;;;7.47;1.50;;;16.30;99.90;;;;;;10531983;28;20052;-40
2022/10/24 13:22:28;;;;;;;9.85;1.92;;;16.50;99.90;;;;;;10531232;28;20091;-41
2022/10/24 13:27:31;;;;;;;7.78;1.00;;;15.80;99.90;;;;;;10531104;28;20044;-39
2022/10/24 13:32:35;;;;;;;10.32;1.38;;;16.30;99.90;;;;;;10532104;28;20142;-42
2022/10/24 13:37:42;;;;;;;8.38;1.60;;;16.20;99.90;;;;;;10528792;28;20089;-43
2022/10/24 13:42:56;;;;;;;7.20;1.23;;;16.00;99.90;;;;;;10532922;28;20048;-41
2022/10/24 13:48:05;;;;;;;11.60;2.10;;;16.70;99.90;;;;;;10530177;28;20142;-37
2022/10/24 13:53:15;;;;;;;14.05;2.10;;;16.50;99.90;;;;;;10528459;28;20051;-42
2022/10/24 13:58:20;;;;;;;11.20;1.63;;;16.20;99.90;;;;;;10534330;28;20097;-42
2022/10/24 14:03:26;;;;;;;5.80;1.42;;;16.20;99.90;;;;;;10531605;28;20051;-42
2022/10/24 14:08:31;;;;;;;16.33;2.17;;;16.40;99.90;;;;;;10535488;28;20067;-44
2022/10/24 14:13:36;;;;;;;13.95;1.75;;;16.30;99.90;;;;;;10531145;28;20097;-40
2022/10/24 14:18:40;;;;;;;18.48;2.35;;;16.90;99.90;;;;;;10533207;28;20386;-42
2022/10/24 14:23:42;;;;;;;16.48;1.92;;;16.30;99.90;;;;;;10532059;28;20056;-39
2022/10/24 14:28:48;;;;;;;22.67;2.80;;;17.00;99.90;;;;;;10530063;28;20127;-43
2022/10/24 14:33:53;;;;;;;24.25;2.17;;;16.60;99.90;;;;;;10531536;28;20830;-43
2022/10/24 14:38:57;;;;;;;20.80;2.33;;;17.10;99.90;;;;;;10528296;28;20048;-44
2022/10/24 14:43:59;;;;;;;16.55;2.72;;;17.30;99.90;;;;;;10533996;28;20080;-41
2022/10/24 14:49:20;;;;;;;15.63;1.77;;;17.40;99.90;;;;;;10530302;28;20067;-44
2022/10/24 14:54:25;;;;;;;17.40;2.13;;;17.70;99.90;;;;;;10529212;28;20127;-44
2022/10/24 14:59:32;;;;;;;12.43;2.28;;;17.90;99.80;;;;;;10525944;28;20047;-42
2022/10/24 15:04:40;;;;;;;15.13;1.80;;;18.80;96.90;;;;;;10526213;28;20460;-41
2022/10/24 15:09:52;;;;;;;15.90;1.85;;;18.40;97.50;;;;;;10531839;28;20443;-42
2022/10/24 15:14:55;;;;;;;14.88;1.48;;;18.30;97.60;;;;;;10535994;28;20040;-42
2022/10/24 15:20:00;;;;;;;13.05;2.40;;;18.50;97.00;;;;;;10530771;28;20067;-43
2022/10/24 15:25:06;;;;;;;20.75;2.33;;;18.10;98.50;;;;;;10529553;28;20152;-44
2022/10/24 15:30:13;;;;;;;13.70;2.63;;;17.60;99.60;;;;;;10529854;28;20101;-44
2022/10/24 15:35:17;;;;;;;24.17;3.40;;;17.70;99.60;;;;;;10529972;28;20097;-38
2022/10/24 15:40:21;;;;;;;16.95;2.90;;;17.30;99.90;;;;;;10531363;28;20052;-43
2022/10/24 15:45:24;;;;;;;26.27;2.83;;;17.40;99.90;;;;;;10527722;28;20545;-43
2022/10/24 15:50:27;;;;;;;30.02;4.75;;;17.00;99.90;;;;;;10529329;28;20044;-43
2022/10/24 15:55:30;;;;;;;19.60;2.88;;;16.70;99.90;;;;;;10533029;28;20043;-43
2022/10/24 16:00:33;;;;;;;25.92;4.63;;;17.10;99.90;;;;;;10528350;28;20680;-41
2022/10/24 16:05:38;;;;;;;24.92;3.75;;;16.80;99.90;;;;;;10532057;28;20150;-42
2022/10/24 16:10:41;;;;;;;23.38;4.15;;;17.40;99.90;;;;;;10536466;28;20056;-43
2022/10/24 16:15:43;;;;;;;;;;;17.30;99.90;;;;;;10526404;28;20508;-45
2022/10/24 16:20:47;;;;;;;10.97;2.20;;;16.30;99.90;;;;;;10535241;28;19959;-42
2022/10/24 16:25:49;;;;;;;20.85;2.75;;;16.80;99.90;;;;;;10535182;28;20044;-44
2022/10/24 16:30:50;;;;;;;14.37;3.83;;;16.30;99.90;;;;;;10533355;28;20044;-46
2022/10/24 16:35:54;;;;;;;25.47;2.67;;;16.80;99.90;;;;;;10536259;28;20048;-44
2022/10/24 16:40:55;;;;;;;21.48;3.15;;;16.10;99.90;;;;;;10527775;28;20085;-44
2022/10/24 16:45:58;;;;;;;13.87;2.57;;;16.70;99.90;;;;;;10534912;28;20139;-43
2022/10/24 16:51:02;;;;;;;25.08;2.72;;;17.80;98.90;;;;;;10533697;28;20072;-41
2022/10/24 16:56:04;;;;;;;18.42;2.67;;;17.90;98.60;;;;;;10537094;28;20072;-43
2022/10/24 17:01:07;;;;;;;;;;;17.90;98.30;;;;;;10530482;28;20138;-45
2022/10/24 17:06:11;;;;;;;12.57;2.38;;;17.60;98.90;;;;;;10531442;28;19931;-40
2022/10/24 17:11:13;;;;;;;14.70;2.95;;;18.00;97.60;;;;;;10532603;28;20138;-47
2022/10/24 17:16:14;;;;;;;10.00;3.43;;;17.80;98.70;;;;;;10531372;28;20044;-41
2022/10/24 17:21:23;;;;;;;10.30;2.87;;;18.10;98.50;;;;;;10531145;28;20174;-44
2022/10/24 17:26:26;;;;;;;13.52;2.72;;;18.00;97.30;;;;;;10531651;28;21015;-42
2022/10/24 17:31:28;;;;;;;16.63;2.22;;;17.10;99.90;;;;;;10530047;28;20126;-43
2022/10/24 17:36:36;;;;;;;14.50;2.17;;;16.70;99.90;;;;;;10530921;28;20054;-42
2022/10/24 17:41:41;;;;;;;20.17;2.63;;;17.00;99.90;;;;;;10529891;28;20558;-43
2022/10/24 17:46:43;;;;;;;11.30;2.08;;;16.70;99.90;;;;;;10544763;28;20051;-44
2022/10/24 17:51:46;;;;;;;18.80;2.83;;;16.40;99.90;;;;;;10525511;28;20040;-43
2022/10/24 17:56:48;;;;;;;9.80;2.10;;;16.10;99.90;;;;;;10516896;28;20134;-43
2022/10/24 18:01:50;;;;;;;15.33;1.93;;;16.20;99.90;;;;;;10527253;28;20131;-45
2022/10/24 18:06:53;;;;;;;6.87;1.33;;;16.20;99.90;;;;;;10526689;28;20451;-43
2022/10/24 18:11:56;;;;;;;7.15;1.58;;;17.80;99.80;;;;;;10529039;28;20044;-40
2022/10/24 18:16:58;;;;;;;;;;;17.60;99.50;;;;;;10527320;28;20052;-43
2022/10/24 18:22:01;;;;;;;4.07;1.23;;;17.40;99.20;;;;;;10527885;28;19920;-38
2022/10/24 18:27:03;;;;;;;5.53;1.45;;;17.70;99.30;;;;;;10521837;28;20040;-44
2022/10/24 18:32:05;;;;;;;7.50;1.70;;;17.10;99.90;;;;;;10516088;28;20047;-43
2022/10/24 18:37:08;;;;;;;8.73;1.77;;;18.20;97.60;;;;;;10521492;28;20067;-42
2022/10/24 18:42:20;;;;;;;6.45;1.40;;;18.20;97.30;;;;;;10525494;28;20040;-42
2022/10/24 18:47:23;;;;;;;6.60;1.97;;;18.20;96.90;;;;;;10526153;28;20487;-41
2022/10/24 18:52:32;;;;;;;;;;;17.80;99.20;;;;;;10526902;28;20131;-40
2022/10/24 18:57:35;;;;;;;17.20;2.20;;;18.10;98.40;;;;;;10529511;28;19932;-40
2022/10/24 19:02:42;;;;;;;6.05;1.25;;;18.00;98.30;;;;;;10528395;28;20055;-40
2022/10/24 19:07:46;;;;;;;5.97;1.77;;;17.40;98.50;;;;;;10520870;28;20063;-39
2022/10/24 19:12:49;;;;;;;6.43;1.17;;;17.80;98.20;;;;;;10524547;28;20204;-40
2022/10/24 19:17:51;;;;;;;7.50;1.33;;;17.50;99.90;;;;;;10523731;28;20423;-40
2022/10/24 19:22:54;;;;;;;5.20;1.40;;;17.50;99.80;;;;;;10515858;28;20060;-41
2022/10/24 19:27:56;;;;;;;8.45;1.75;;;17.20;99.90;;;;;;10524542;28;20139;-40
2022/10/24 19:32:58;;;;;;;7.23;1.30;;;17.30;99.90;;;;;;10527420;28;20134;-40
2022/10/24 19:38:01;;;;;;;6.47;1.50;;;16.50;99.90;;;;;;10526698;28;20158;-39
2022/10/24 19:43:02;;;;;;;5.75;1.40;;;16.90;99.90;;;;;;10532106;28;20074;-40
2022/10/24 19:48:07;;;;;;;10.13;2.13;;;16.10;99.90;;;;;;10530754;28;20044;-40
2022/10/24 19:53:12;;;;;;;11.55;1.48;;;15.90;99.90;;;;;;10526619;28;20048;-40
2022/10/24 19:58:17;;;;;;;7.88;1.52;;;16.60;99.90;;;;;;10527591;28;20499;-41
2022/10/24 20:03:19;;;;;;;12.23;1.83;;;16.00;99.90;;;;;;10529145;28;20059;-39
2022/10/24 20:08:22;;;;;;;12.07;2.13;;;15.50;99.90;;;;;;10524392;28;20040;-40
2022/10/24 20:13:24;;;;;;;5.10;1.35;;;16.20;99.90;;;;;;10531096;28;20725;-39
2022/10/24 20:18:27;;;;;;;7.20;1.43;;;15.90;99.90;;;;;;10532092;28;20043;-39
2022/10/24 20:23:31;;;;;;;10.00;1.60;;;15.80;99.90;;;;;;10529711;28;20104;-38
2022/10/24 20:28:34;;;;;;;14.93;2.17;;;16.60;99.90;;;;;;10530182;28;20123;-38
2022/10/24 20:33:36;;;;;;;9.70;2.03;;;16.60;99.90;;;;;;10531710;28;20075;-40
2022/10/24 20:38:39;;;;;;;7.87;1.70;;;16.40;99.90;;;;;;10532396;28;20101;-40
2022/10/24 20:43:41;;;;;;;11.15;2.00;;;16.60;99.90;;;;;;10533076;28;20132;-40
2022/10/24 20:48:43;;;;;;;6.40;1.60;;;16.40;99.90;;;;;;10531327;28;20123;-39
2022/10/24 20:53:46;;;;;;;5.33;0.97;;;16.60;99.90;;;;;;10530301;28;20048;-40
2022/10/24 20:58:49;;;;;;;5.95;1.60;;;16.10;99.90;;;;;;10540385;28;20058;-41
2022/10/24 21:03:51;;;;;;;;;;;16.40;99.90;;;;;;10538767;28;20131;-40
2022/10/24 21:08:56;;;;;;;6.47;1.25;;;16.00;99.90;;;;;;10524936;28;19926;-41
2022/10/24 21:14:00;;;;;;;4.85;1.40;;;16.90;99.90;;;;;;10532571;28;20139;-41
2022/10/24 21:19:02;;;;;;;2.75;1.00;;;16.70;99.90;;;;;;10532085;28;20868;-40
2022/10/24 21:24:06;;;;;;;11.40;1.40;;;16.20;99.90;;;;;;10535437;28;20106;-39
2022/10/24 21:29:08;;;;;;;7.05;1.25;;;16.10;99.90;;;;;;10531665;28;20089;-40
2022/10/24 21:34:10;;;;;;;7.53;1.27;;;15.60;99.90;;;;;;10516823;28;20060;-41
2022/10/24 21:39:14;;;;;;;5.67;1.27;;;16.30;99.90;;;;;;10513226;28;20044;-40
2022/10/24 21:44:16;;;;;;;11.55;3.05;;;16.80;99.90;;;;;;10517896;28;20128;-35
2022/10/24 21:49:18;;;;;;;4.57;1.10;;;17.60;98.70;;;;;;10515723;28;20048;-39
2022/10/24 21:54:23;;;;;;;13.80;1.70;;;17.30;99.90;;;;;;10515357;28;20384;-39
2022/10/24 21:59:24;;;;;;;9.57;1.50;;;16.60;99.90;;;;;;10523911;28;20118;-39
2022/10/24 22:04:27;;;;;;;6.70;0.80;;;17.20;99.90;;;;;;10523431;28;20067;-39
2022/10/24 22:09:30;;;;;;;7.28;1.42;;;17.10;99.90;;;;;;10524601;28;20048;-40
2022/10/24 22:14:32;;;;;;;9.65;1.02;;;16.50;99.90;;;;;;10521238;28;20051;-40
2022/10/24 22:19:34;;;;;;;6.77;1.00;;;16.00;99.90;;;;;;10527784;28;20819;-40
2022/10/24 22:24:37;;;;;;;10.10;1.77;;;16.60;99.90;;;;;;10525628;28;20056;-40
2022/10/24 22:29:39;;;;;;;9.68;1.23;;;16.60;99.90;;;;;;10541203;28;20076;-40
2022/10/24 22:34:41;;;;;;;4.37;1.13;;;16.60;99.90;;;;;;10528396;28;20087;-41
2022/10/24 22:39:45;;;;;;;5.80;1.02;;;16.90;99.90;;;;;;10539925;28;20051;-40
2022/10/24 22:44:47;;;;;;;10.18;1.38;;;17.00;99.90;;;;;;10523212;28;20098;-40
2022/10/24 22:49:59;;;;;;;12.40;2.03;;;17.00;99.90;;;;;;10519291;28;20052;-40
2022/10/24 22:55:03;;;;;;;4.47;1.00;;;16.00;99.90;;;;;;10532119;28;20510;-40
2022/10/24 23:00:06;;;;;;;9.77;2.00;;;17.00;99.90;;;;;;10529996;28;20056;-40
2022/10/24 23:05:13;;;;;;;15.45;1.98;;;15.90;99.90;;;;;;10530880;28;20044;-40
2022/10/24 23:10:19;;;;;;;14.30;2.15;;;16.60;99.90;;;;;;10543638;28;20054;-40
2022/10/24 23:15:22;;;;;;;12.75;2.13;;;16.80;99.90;;;;;;10533465;28;20097;-41
2022/10/24 23:20:33;;;;;;;6.45;1.67;;;17.10;99.90;;;;;;10536627;28;20083;-40
2022/10/24 23:25:36;;;;;;;11.18;1.70;;;16.90;99.90;;;;;;10526313;28;20148;-44
2022/10/24 23:30:39;;;;;;;16.83;2.47;;;17.20;99.90;;;;;;10532654;28;20123;-40
2022/10/24 23:35:41;;;;;;;6.47;1.90;;;16.60;99.90;;;;;;10525345;28;20052;-40
2022/10/24 23:40:46;;;;;;;5.32;1.27;;;17.00;99.90;;;;;;10534188;28;20438;-40
2022/10/24 23:45:52;;;;;;;10.15;1.75;;;16.80;99.90;;;;;;10537216;28;20051;-40
2022/10/24 23:50:59;;;;;;;13.13;1.33;;;16.30;99.90;;;;;;10534077;28;20048;-39
2022/10/24 23:56:03;;;;;;;6.82;1.27;;;16.50;99.90;;;;;;10539480;28;20044;-40
